Saint Helena Island, United Kingdom
Current Conditions -  °F | °C
As of 12:50 AM on Friday 28 Nov 2014 (Local Time) from FHAW Reporting Station
Broken Clouds Broken Clouds  
Wind Chill: 73°   Ceiling: 4100
Heat Index: 73°   Visibility: 6mi
Dew Point: 59°   Wind: 18mph
Humidity: 61%   Direction: 140°SE
Pressure: 30"   Gusts: NA
Location:  15.93°S, 5.07°W
Report Text: FHAW 272350Z 14016KT 9999 BKN041 23/15 Q1016 BLU
Loading
Personal Weather Stations






























Interactive Weather Map New forecast layout! Learn more

10-Day Weather Forecast

Advertisements
Track Severe Weather on mobile